Notice: Undefined index: language in /home/u232659314/public_html/vam/index.php on line 31
Pluna Virtual

METAR AND TAF INFORMATION
METAR FOR SUAA
ADDS - METARS form results

(2104 UTC 24 May 2019)
Data provider http://aviationweather.gov/metar/data/
 
Forecast for: SUAA (MELILLA/ANGEL S., UY)
Text: SUAA 241730Z 2418/2518 27008KT 9999 FEW020 TX18/2518Z TN08/2510Z
Forecast period: 1800 UTC 24 May 2019 to 1800 UTC 25 May 2019
Forecast type: FROM: standard forecast or significant change
Winds: from the W (270 degrees) at 9 MPH (8 knots; 4.1 m/s)
Visibility: 6 or more miles 10+ km)
Ceiling: at least 12,000 feet AGL
Clouds: few clouds at 2000 feet AGL
Weather: no significant weather forecast for this period
Text: TEMPO 2502/2508 35005KT 3000 BR NSC
Forecast period: 0200 to 0800 UTC 25 May 2019
Forecast type: TEMPORARY: The following changes expected for less than half the time period
Winds: from the N (350 degrees) at 6 MPH (5 knots; 2.6 m/s)
Visibility: 1.86 miles (2.99 km)
Ceiling: unknown
Clouds: missing
Weather: BR  (mist)

AIRPORT MAP

RUNWAY INFORMATION
Runway 18 Runway length 4101 ft Runway width 75 ft
Runway elevation 151 ft Runway displaced threshold 0 ft Runway heading 177
Runway 36 Runway length 4101 ft Runway width 75 ft
Runway elevation 174 ft Runway displaced threshold 0 ft Runway heading 357

AIRPORT FREQUENCIES
Type RDO Name ADAMI RDO Frequency 45.662 MHZ
Type TWR Name ADAMI TWR Frequency 118.4 MHZ

AIRPORT NEAR NAVIGATION AIDS
Type NDB Name Adami Frequency 395 KHZ